Time;durP1;ratioP1;P1;durP2;ratioP2;P2;SDS_P1;SDS_P2;PMS_P1;PMS_P2;Temp;Humidity;BMP_temperature;BMP_pressure;BME280_temperature;BME280_humidity;BME280_pressure;Samples;Min_cycle;Max_cycle;Signal;HPM_P1;HPM_P2
2024/02/04 00:01:41;;;;;;;19.45;4.07;;;7.60;99.90;;;;;;6368579;22;20028;-83
2024/02/04 00:04:07;;;;;;;26.35;3.55;;;7.60;99.90;;;;;;6340819;22;20047;-84
2024/02/04 00:06:33;;;;;;;18.15;4.55;;;7.60;99.90;;;;;;6368949;22;20052;-84
2024/02/04 00:08:58;;;;;;;19.45;4.72;;;7.60;99.90;;;;;;6340900;22;19998;-82
2024/02/04 00:11:24;;;;;;;22.70;4.30;;;7.60;99.90;;;;;;6368904;22;20010;-83
2024/02/04 00:13:51;;;;;;;15.80;3.90;;;7.60;99.90;;;;;;6315489;22;20007;-81
2024/02/04 00:16:19;;;;;;;17.83;4.00;;;7.60;99.90;;;;;;6341262;22;20337;-82
2024/02/04 00:18:47;;;;;;;12.32;3.50;;;7.60;99.90;;;;;;6341243;22;20006;-81
2024/02/04 00:21:12;;;;;;;21.55;4.82;;;7.60;99.90;;;;;;6341391;22;20453;-81
2024/02/04 00:23:38;;;;;;;18.85;3.30;;;7.60;99.90;;;;;;6369260;22;20078;-81
2024/02/04 00:26:04;;;;;;;21.40;4.80;;;7.60;99.90;;;;;;6368233;22;20028;-83
2024/02/04 00:28:29;;;;;;;14.07;3.05;;;7.70;99.90;;;;;;6367825;22;20002;-82
2024/02/04 00:30:57;;;;;;;10.40;3.10;;;7.70;99.90;;;;;;6341133;22;20114;-81
2024/02/04 00:33:23;;;;;;;10.05;2.67;;;7.70;99.90;;;;;;6341325;22;20003;-84
2024/02/04 00:35:49;;;;;;;14.38;2.08;;;7.70;99.90;;;;;;6369215;22;20012;-81
2024/02/04 00:38:14;;;;;;;11.27;1.83;;;7.70;99.90;;;;;;6368437;22;20002;-81
2024/02/04 00:40:40;;;;;;;6.68;2.33;;;7.60;99.90;;;;;;6368886;22;20003;-81
2024/02/04 00:43:06;;;;;;;9.52;1.80;;;7.60;99.90;;;;;;6341294;22;20422;-82
2024/02/04 00:45:33;;;;;;;10.13;1.90;;;7.70;99.90;;;;;;6369262;22;20363;-81
2024/02/04 00:47:59;;;;;;;7.75;1.88;;;7.70;99.90;;;;;;6340475;22;20017;-82
2024/02/04 00:50:24;;;;;;;10.18;1.75;;;7.60;99.90;;;;;;6367117;22;20006;-81
2024/02/04 00:52:53;;;;;;;9.77;2.22;;;7.60;99.90;;;;;;6368877;22;20009;-83
2024/02/04 00:55:19;;;;;;;5.57;2.00;;;7.60;99.90;;;;;;6369283;22;20367;-82
2024/02/04 00:57:45;;;;;;;10.05;1.98;;;7.60;99.90;;;;;;6340852;22;19998;-82
2024/02/04 01:00:12;;;;;;;8.00;1.55;;;7.60;99.90;;;;;;6340698;22;20036;-81
2024/02/04 01:02:40;;;;;;;13.38;2.05;;;7.60;99.90;;;;;;6369041;22;20019;-81
2024/02/04 01:05:06;;;;;;;10.65;1.70;;;7.60;99.90;;;;;;6368813;22;20013;-80
2024/02/04 01:07:32;;;;;;;12.00;2.33;;;7.60;99.90;;;;;;6368247;22;19994;-82
2024/02/04 01:09:58;;;;;;;6.72;1.10;;;7.60;99.90;;;;;;6340918;22;20066;-82
2024/02/04 01:12:23;;;;;;;11.35;1.80;;;7.60;99.90;;;;;;6341177;22;20329;-81
2024/02/04 01:14:49;;;;;;;5.40;1.08;;;7.60;99.90;;;;;;6340667;22;20422;-82
2024/02/04 01:17:15;;;;;;;6.60;1.23;;;7.50;99.90;;;;;;6369436;22;20013;-81
2024/02/04 01:19:40;;;;;;;8.48;1.15;;;7.50;99.90;;;;;;6368706;22;20429;-82
2024/02/04 01:22:06;;;;;;;4.22;1.00;;;7.50;99.90;;;;;;6369754;22;20007;-82
2024/02/04 01:24:32;;;;;;;6.20;1.30;;;7.50;99.90;;;;;;6340828;22;20010;-82
2024/02/04 01:26:58;;;;;;;8.13;1.30;;;7.50;99.90;;;;;;6367334;22;20077;-81
2024/02/04 01:29:24;;;;;;;13.00;3.13;;;7.50;99.90;;;;;;6366798;22;20413;-82
2024/02/04 01:31:49;;;;;;;8.95;1.92;;;7.50;99.90;;;;;;6368307;22;20096;-83
2024/02/04 01:34:15;;;;;;;3.85;1.05;;;7.40;99.90;;;;;;6368100;22;20394;-82
2024/02/04 01:36:41;;;;;;;4.82;1.67;;;7.40;99.90;;;;;;6340538;22;20034;-83
2024/02/04 01:39:07;;;;;;;9.65;1.10;;;7.40;99.90;;;;;;6341215;22;20014;-82
2024/02/04 01:41:33;;;;;;;10.35;1.33;;;7.40;99.90;;;;;;6368976;22;20005;-83
2024/02/04 01:43:59;;;;;;;5.20;1.10;;;7.40;99.90;;;;;;6341755;22;19999;-82
2024/02/04 01:46:24;;;;;;;9.60;1.25;;;7.40;99.90;;;;;;6342949;22;19998;-84
2024/02/04 01:48:51;;;;;;;7.82;0.98;;;7.40;99.90;;;;;;6342599;22;20124;-82
2024/02/04 01:51:19;;;;;;;7.07;1.20;;;7.40;99.90;;;;;;6370764;22;20567;-82
2024/02/04 01:53:45;;;;;;;7.88;1.15;;;7.40;99.90;;;;;;6342549;22;20002;-83
2024/02/04 01:56:13;;;;;;;16.17;1.60;;;7.40;99.90;;;;;;6342615;22;20006;-81
2024/02/04 01:58:39;;;;;;;5.22;1.17;;;7.40;99.90;;;;;;6370856;22;20413;-82
2024/02/04 02:01:05;;;;;;;6.35;1.38;;;7.40;99.90;;;;;;6342792;22;20002;-84
2024/02/04 02:03:31;;;;;;;3.90;1.48;;;7.40;99.90;;;;;;6342664;22;20486;-83
2024/02/04 02:05:59;;;;;;;6.68;1.27;;;7.40;99.90;;;;;;6342296;22;19998;-83
2024/02/04 02:08:25;;;;;;;5.13;1.05;;;7.40;99.90;;;;;;6370708;22;20006;-83
2024/02/04 02:10:55;;;;;;;12.48;1.13;;;7.40;99.90;;;;;;6316637;22;20018;-84
2024/02/04 02:13:26;;;;;;;3.28;0.88;;;7.40;99.90;;;;;;6371177;22;19998;-83
2024/02/04 02:15:59;;;;;;;3.40;0.70;;;7.30;99.90;;;;;;6370222;22;20372;-84
2024/02/04 02:18:32;;;;;;;6.05;1.20;;;7.30;99.90;;;;;;6342503;22;19998;-84
2024/02/04 02:21:10;;;;;;;3.63;1.48;;;7.30;99.90;;;;;;6341822;22;20010;-84
2024/02/04 02:23:48;;;;;;;3.67;0.80;;;7.30;99.90;;;;;;6342694;22;20086;-84
2024/02/04 02:26:15;;;;;;;3.92;1.65;;;7.30;99.90;;;;;;6370716;22;20493;-84
2024/02/04 02:28:40;;;;;;;4.22;1.00;;;7.30;99.90;;;;;;6342302;22;20013;-85
2024/02/04 02:31:06;;;;;;;4.55;0.90;;;7.30;99.90;;;;;;6369809;22;20090;-83
2024/02/04 02:33:32;;;;;;;2.67;1.77;;;7.20;99.90;;;;;;6342101;22;19998;-82
2024/02/04 02:36:00;;;;;;;5.75;1.13;;;7.30;99.90;;;;;;6342347;22;20006;-84
2024/02/04 02:38:41;;;;;;;4.32;1.20;;;7.30;99.90;;;;;;6342553;22;19999;-83
2024/02/04 02:41:09;;;;;;;8.02;1.80;;;7.20;99.90;;;;;;6342818;22;20006;-83
2024/02/04 02:43:39;;;;;;;8.23;1.33;;;7.30;99.90;;;;;;6342803;22;20033;-83
2024/02/04 02:46:06;;;;;;;4.40;1.00;;;7.30;99.90;;;;;;6371322;22;20069;-82
2024/02/04 02:48:32;;;;;;;7.20;1.27;;;7.30;99.90;;;;;;6342685;22;20002;-83
2024/02/04 02:50:58;;;;;;;5.22;1.05;;;7.30;99.90;;;;;;6370772;22;20375;-84
2024/02/04 02:53:26;;;;;;;5.30;1.40;;;7.30;99.90;;;;;;6371115;22;20002;-82
2024/02/04 02:55:52;;;;;;;10.85;1.58;;;7.30;99.90;;;;;;6317000;22;20085;-83
2024/02/04 02:58:18;;;;;;;9.38;1.40;;;7.30;99.90;;;;;;6371106;22;20386;-83
2024/02/04 03:00:45;;;;;;;11.50;1.30;;;7.30;99.90;;;;;;6342806;22;20003;-83
2024/02/04 03:03:11;;;;;;;11.10;1.40;;;7.30;99.90;;;;;;6370603;22;19994;-83
2024/02/04 03:05:37;;;;;;;9.40;1.40;;;7.30;99.90;;;;;;6371063;22;19998;-82
2024/02/04 03:08:03;;;;;;;6.95;1.25;;;7.30;99.90;;;;;;6343725;22;20028;-83
2024/02/04 03:10:29;;;;;;;7.13;1.70;;;7.30;99.90;;;;;;6342697;22;20097;-83
2024/02/04 03:12:55;;;;;;;7.45;1.73;;;7.30;99.90;;;;;;6342990;22;20033;-83
2024/02/04 03:15:22;;;;;;;4.07;1.30;;;7.30;99.90;;;;;;6342458;22;20437;-84
2024/02/04 03:17:47;;;;;;;7.25;1.50;;;7.30;99.90;;;;;;6342094;22;20017;-84
2024/02/04 03:20:13;;;;;;;7.80;1.77;;;7.30;99.90;;;;;;6341923;22;20437;-83
2024/02/04 03:22:39;;;;;;;13.57;2.58;;;7.30;99.90;;;;;;6342068;22;20126;-84
2024/02/04 03:25:05;;;;;;;7.15;1.98;;;7.30;99.90;;;;;;6342131;22;20002;-85
2024/02/04 03:27:31;;;;;;;5.53;1.55;;;7.30;99.90;;;;;;6342145;22;20002;-84
2024/02/04 03:29:58;;;;;;;9.05;2.70;;;7.20;99.90;;;;;;6341949;22;20456;-84
2024/02/04 03:32:23;;;;;;;9.18;2.00;;;7.30;99.90;;;;;;6341704;22;20006;-82
2024/02/04 03:34:49;;;;;;;7.13;2.08;;;7.20;99.90;;;;;;6342050;22;20366;-83
2024/02/04 03:37:15;;;;;;;7.53;1.52;;;7.20;99.90;;;;;;6342312;22;20003;-83
2024/02/04 03:39:40;;;;;;;5.50;1.88;;;7.20;99.90;;;;;;6342177;22;20038;-82
2024/02/04 03:42:06;;;;;;;9.77;1.60;;;7.20;99.90;;;;;;6370244;22;20006;-82
2024/02/04 03:44:32;;;;;;;7.97;1.65;;;7.20;99.90;;;;;;6343152;22;20086;-82
2024/02/04 03:46:57;;;;;;;8.13;2.45;;;7.10;99.90;;;;;;6370809;22;19999;-82
2024/02/04 03:49:23;;;;;;;6.70;1.60;;;7.10;99.90;;;;;;6342910;22;20029;-83
2024/02/04 03:51:49;;;;;;;10.63;2.22;;;7.10;99.90;;;;;;6342908;22;20025;-84
2024/02/04 03:54:14;;;;;;;5.57;2.10;;;7.10;99.90;;;;;;6343073;22;20005;-82
2024/02/04 03:56:41;;;;;;;8.48;2.28;;;7.10;99.90;;;;;;6371176;22;20012;-83
2024/02/04 03:59:10;;;;;;;20.20;3.25;;;7.10;99.90;;;;;;6370856;22;20002;-83
2024/02/04 04:01:36;;;;;;;11.60;2.80;;;7.10;99.90;;;;;;6342449;22;20318;-83
2024/02/04 04:04:02;;;;;;;10.13;2.90;;;7.10;99.90;;;;;;6341953;22;20009;-83
2024/02/04 04:06:28;;;;;;;8.45;3.20;;;7.10;99.90;;;;;;6369544;22;20009;-83
2024/02/04 04:08:53;;;;;;;7.70;2.83;;;7.10;99.90;;;;;;6342031;22;19998;-83
2024/02/04 04:11:19;;;;;;;5.85;1.80;;;7.10;99.90;;;;;;6341404;22;20022;-84
2024/02/04 04:13:44;;;;;;;4.38;1.10;;;7.10;99.90;;;;;;6341424;22;20078;-85
2024/02/04 04:16:10;;;;;;;4.43;0.70;;;7.10;99.90;;;;;;6341872;22;20006;-83
2024/02/04 04:18:36;;;;;;;3.92;0.90;;;7.10;99.90;;;;;;6342173;22;20201;-82
2024/02/04 04:21:02;;;;;;;2.63;0.70;;;7.10;99.90;;;;;;6346911;22;20342;-82
2024/02/04 04:23:27;;;;;;;5.75;1.00;;;7.10;99.90;;;;;;6337605;22;20020;-82
2024/02/04 04:25:53;;;;;;;6.03;1.00;;;7.10;99.90;;;;;;6338216;22;20359;-83
2024/02/04 04:28:19;;;;;;;5.70;1.90;;;7.20;99.90;;;;;;6338292;22;20011;-84
2024/02/04 04:30:44;;;;;;;4.43;0.98;;;7.20;99.90;;;;;;6337772;22;20044;-84
2024/02/04 04:33:12;;;;;;;3.00;1.08;;;7.20;99.90;;;;;;6310106;22;19999;-83
2024/02/04 04:35:38;;;;;;;7.55;1.35;;;7.20;99.90;;;;;;6310040;22;20003;-82
2024/02/04 04:38:03;;;;;;;5.93;1.67;;;7.30;99.90;;;;;;6338248;22;20022;-82
2024/02/04 04:40:29;;;;;;;1.83;1.00;;;7.30;99.90;;;;;;6338384;22;20449;-84
2024/02/04 04:42:55;;;;;;;3.83;0.88;;;7.30;99.90;;;;;;6310403;22;20459;-83
2024/02/04 04:45:21;;;;;;;5.05;1.00;;;7.30;99.90;;;;;;6338074;22;20002;-84
2024/02/04 04:47:47;;;;;;;9.55;1.13;;;7.40;99.90;;;;;;6337943;22;19999;-84
2024/02/04 04:50:13;;;;;;;3.70;1.15;;;7.40;99.90;;;;;;6337654;22;20333;-84
2024/02/04 04:52:40;;;;;;;4.68;1.00;;;7.40;99.90;;;;;;6310429;22;20053;-83
2024/02/04 04:55:06;;;;;;;6.00;1.60;;;7.40;99.90;;;;;;6337865;22;20002;-84
2024/02/04 04:57:31;;;;;;;2.97;1.10;;;7.40;99.90;;;;;;6337867;22;20385;-84
2024/02/04 05:00:00;;;;;;;4.22;1.10;;;7.40;99.90;;;;;;6310011;22;20330;-82
2024/02/04 05:02:26;;;;;;;7.70;1.35;;;7.40;99.90;;;;;;6310197;22;20089;-83
2024/02/04 05:04:51;;;;;;;4.50;1.05;;;7.40;99.90;;;;;;6337447;22;20033;-83
2024/02/04 05:07:21;;;;;;;4.57;1.20;;;7.40;99.90;;;;;;6310109;22;20038;-84
2024/02/04 05:09:47;;;;;;;4.45;2.00;;;7.40;99.90;;;;;;6310040;22;20014;-82
2024/02/04 05:12:13;;;;;;;3.70;1.35;;;7.40;99.90;;;;;;6310167;22;20334;-85
2024/02/04 05:14:38;;;;;;;4.30;1.23;;;7.40;99.90;;;;;;6337177;22;20037;-82
2024/02/04 05:17:05;;;;;;;6.05;1.10;;;7.40;99.90;;;;;;6310396;22;20057;-84
2024/02/04 05:19:31;;;;;;;3.38;0.90;;;7.40;99.90;;;;;;6311775;22;19999;-83
2024/02/04 05:21:57;;;;;;;5.03;0.90;;;7.40;99.90;;;;;;6312028;22;20018;-84
2024/02/04 05:24:22;;;;;;;4.90;1.00;;;7.40;99.90;;;;;;6311618;22;20013;-83
2024/02/04 05:26:48;;;;;;;4.80;0.98;;;7.40;99.90;;;;;;6312056;22;20346;-84
2024/02/04 05:29:14;;;;;;;3.55;0.95;;;7.40;99.90;;;;;;6339321;22;20022;-84
2024/02/04 05:31:43;;;;;;;4.15;0.77;;;7.40;99.90;;;;;;6339517;22;20385;-83
2024/02/04 05:34:10;;;;;;;2.33;0.75;;;7.40;99.90;;;;;;6311482;22;20010;-83
2024/02/04 05:36:35;;;;;;;1.88;0.82;;;7.40;99.90;;;;;;6312002;22;20394;-83
2024/02/04 05:39:12;;;;;;;4.05;0.80;;;7.40;99.90;;;;;;6339546;22;19998;-84
2024/02/04 05:41:38;;;;;;;4.03;0.75;;;7.40;99.90;;;;;;6312379;22;20007;-83
2024/02/04 05:44:04;;;;;;;8.55;1.20;;;7.40;99.90;;;;;;6339645;22;19999;-82
2024/02/04 05:46:30;;;;;;;5.80;1.27;;;7.40;99.90;;;;;;6312147;22;20060;-83
2024/02/04 05:48:55;;;;;;;4.63;0.80;;;7.40;99.90;;;;;;6339541;22;20006;-83
2024/02/04 05:51:22;;;;;;;6.15;1.15;;;7.50;99.90;;;;;;6311656;22;20018;-83
2024/02/04 05:53:48;;;;;;;6.00;1.75;;;7.50;99.90;;;;;;6311292;22;20010;-83
2024/02/04 05:56:14;;;;;;;5.05;1.50;;;7.50;99.90;;;;;;6311554;22;20430;-83
2024/02/04 05:58:40;;;;;;;4.50;1.23;;;7.50;99.90;;;;;;6311684;22;20010;-83
2024/02/04 06:01:05;;;;;;;3.45;1.60;;;7.50;99.90;;;;;;6339351;22;19994;-82
2024/02/04 06:03:31;;;;;;;2.63;1.13;;;7.50;99.90;;;;;;6311685;22;20014;-84
2024/02/04 06:05:57;;;;;;;5.40;1.70;;;7.60;99.90;;;;;;6311835;22;19999;-83
2024/02/04 06:08:22;;;;;;;5.80;2.30;;;7.60;99.90;;;;;;6339133;22;20426;-85
2024/02/04 06:10:48;;;;;;;3.60;1.30;;;7.70;99.90;;;;;;6311505;22;20015;-83
2024/02/04 06:13:14;;;;;;;4.13;1.65;;;7.70;99.90;;;;;;6311762;22;20003;-83
2024/02/04 06:15:40;;;;;;;3.25;1.40;;;7.80;99.90;;;;;;6311545;22;20011;-84
2024/02/04 06:18:06;;;;;;;5.75;1.50;;;7.80;99.90;;;;;;6311348;22;20091;-84
2024/02/04 06:20:33;;;;;;;3.85;1.30;;;7.80;99.90;;;;;;6311015;22;20025;-84
2024/02/04 06:22:59;;;;;;;2.28;1.30;;;7.80;99.90;;;;;;6339357;22;20026;-83
2024/02/04 06:25:24;;;;;;;5.65;1.30;;;7.80;99.90;;;;;;6339395;22;20228;-83
2024/02/04 06:27:50;;;;;;;5.13;1.20;;;7.90;99.90;;;;;;6338759;22;20019;-84
2024/02/04 06:30:16;;;;;;;2.13;1.10;;;7.90;99.90;;;;;;6310587;22;20094;-84
2024/02/04 06:32:42;;;;;;;2.63;1.02;;;7.90;99.90;;;;;;6311398;22;20085;-83
2024/02/04 06:35:07;;;;;;;1.73;0.90;;;7.90;99.90;;;;;;6339108;22;20493;-83
2024/02/04 06:37:33;;;;;;;2.45;1.08;;;7.90;99.90;;;;;;6311432;22;19995;-83
2024/02/04 06:39:59;;;;;;;4.82;0.98;;;7.90;99.90;;;;;;6310749;22;20037;-84
2024/02/04 06:42:25;;;;;;;2.10;1.05;;;7.90;99.90;;;;;;6311476;22;20027;-84
2024/02/04 06:44:50;;;;;;;2.45;0.70;;;8.00;99.90;;;;;;6311183;22;20030;-84
2024/02/04 06:47:16;;;;;;;4.53;0.82;;;8.00;99.90;;;;;;6311290;22;20010;-84
2024/02/04 06:49:45;;;;;;;3.42;0.93;;;8.00;99.90;;;;;;6310756;22;20007;-83
2024/02/04 06:52:11;;;;;;;1.67;0.70;;;8.00;99.90;;;;;;6311469;22;20006;-87
2024/02/04 06:54:36;;;;;;;2.83;0.63;;;8.10;99.90;;;;;;6310336;22;19999;-84
2024/02/04 06:57:02;;;;;;;2.63;0.80;;;8.10;99.90;;;;;;6310825;22;20007;-83
2024/02/04 06:59:28;;;;;;;1.73;0.80;;;8.10;99.90;;;;;;6311173;22;20485;-83
2024/02/04 07:01:54;;;;;;;1.30;0.90;;;8.10;99.90;;;;;;6311121;22;20034;-83
2024/02/04 07:04:24;;;;;;;4.03;1.13;;;8.10;99.90;;;;;;6339090;22;20003;-82
2024/02/04 07:06:51;;;;;;;1.23;0.63;;;8.20;99.90;;;;;;6310605;22;20011;-84
2024/02/04 07:09:17;;;;;;;0.90;0.60;;;8.20;99.90;;;;;;6310559;22;20006;-83
2024/02/04 07:11:43;;;;;;;3.67;0.70;;;8.20;99.90;;;;;;6311154;22;20452;-84
2024/02/04 07:14:08;;;;;;;1.67;0.82;;;8.20;99.90;;;;;;6338469;22;20017;-83
2024/02/04 07:16:34;;;;;;;1.58;0.68;;;8.20;99.90;;;;;;6310538;22;20011;-83
2024/02/04 07:19:00;;;;;;;0.70;0.43;;;8.20;99.90;;;;;;6311595;22;20006;-83
2024/02/04 07:21:25;;;;;;;2.65;0.70;;;8.20;99.90;;;;;;6310968;22;20458;-83
2024/02/04 07:23:51;;;;;;;1.50;0.80;;;8.20;99.90;;;;;;6311197;22;20010;-83
2024/02/04 07:26:17;;;;;;;4.53;0.98;;;8.30;99.90;;;;;;6310707;22;20363;-83
2024/02/04 07:28:42;;;;;;;1.00;0.90;;;8.30;99.90;;;;;;6310620;22;20011;-82
2024/02/04 07:31:08;;;;;;;2.13;1.30;;;8.30;99.90;;;;;;6309843;22;20339;-86
2024/02/04 07:33:36;;;;;;;3.55;0.82;;;8.30;99.90;;;;;;6310001;22;20422;-83
2024/02/04 07:36:02;;;;;;;0.88;0.50;;;8.30;99.90;;;;;;6337400;22;20325;-83
2024/02/04 07:38:28;;;;;;;1.58;0.50;;;8.30;99.90;;;;;;6310142;22;20010;-83
2024/02/04 07:40:56;;;;;;;1.52;0.52;;;8.40;99.90;;;;;;6337475;22;20002;-84
2024/02/04 07:43:22;;;;;;;0.88;0.60;;;8.40;99.90;;;;;;6337826;22;20456;-84
2024/02/04 07:45:48;;;;;;;2.42;0.70;;;8.40;99.90;;;;;;6309890;22;20003;-83
2024/02/04 07:48:13;;;;;;;1.67;1.00;;;8.40;99.90;;;;;;6309580;22;20109;-82
2024/02/04 07:50:39;;;;;;;1.73;0.77;;;8.40;99.90;;;;;;6337878;22;20014;-84
2024/02/04 07:53:05;;;;;;;0.85;0.43;;;8.50;99.90;;;;;;6309302;22;20025;-85
2024/02/04 07:55:31;;;;;;;1.65;0.90;;;8.50;99.90;;;;;;6310172;22;20397;-84
2024/02/04 07:57:57;;;;;;;1.02;0.63;;;8.50;99.90;;;;;;6310022;22;19999;-84
2024/02/04 08:00:22;;;;;;;3.17;0.70;;;8.50;99.90;;;;;;6310254;22;20018;-83
2024/02/04 08:02:48;;;;;;;1.85;0.77;;;8.50;99.90;;;;;;6310654;22;20052;-83
2024/02/04 08:05:14;;;;;;;2.85;0.70;;;8.50;99.90;;;;;;6310027;22;20013;-83
2024/02/04 08:07:40;;;;;;;1.05;0.60;;;8.60;99.90;;;;;;6309806;22;20109;-82
2024/02/04 08:10:09;;;;;;;0.82;0.55;;;8.60;99.90;;;;;;6335961;22;20488;-87
2024/02/04 08:12:35;;;;;;;1.30;0.80;;;8.60;99.90;;;;;;6336057;22;20126;-83
2024/02/04 08:15:01;;;;;;;0.60;0.57;;;8.60;99.90;;;;;;6337689;22;20022;-83
2024/02/04 08:17:30;;;;;;;0.43;0.43;;;8.60;99.90;;;;;;6337595;22;19998;-83
2024/02/04 08:19:56;;;;;;;0.50;0.50;;;8.70;99.90;;;;;;6345935;22;20009;-82
2024/02/04 08:22:22;;;;;;;1.13;0.60;;;8.70;99.90;;;;;;6368999;22;20402;-82
2024/02/04 08:24:48;;;;;;;0.32;0.32;;;8.70;99.90;;;;;;6340612;22;20002;-82
2024/02/04 08:27:17;;;;;;;0.50;0.50;;;8.70;99.90;;;;;;6341275;22;20003;-81
2024/02/04 08:29:43;;;;;;;1.55;0.93;;;8.70;99.90;;;;;;6369192;22;20037;-83
2024/02/04 08:32:09;;;;;;;0.80;0.63;;;8.80;99.90;;;;;;6340883;22;20010;-82
2024/02/04 08:34:35;;;;;;;1.05;0.70;;;8.80;99.90;;;;;;6340070;22;20093;-84
2024/02/04 08:37:00;;;;;;;2.40;0.88;;;8.80;99.90;;;;;;6339031;22;20081;-83
2024/02/04 08:39:26;;;;;;;1.52;0.70;;;8.80;99.90;;;;;;6339192;22;19999;-82
2024/02/04 08:41:52;;;;;;;1.63;0.90;;;8.90;99.90;;;;;;6338921;22;20376;-85
2024/02/04 08:44:17;;;;;;;1.48;1.38;;;8.90;99.90;;;;;;6338613;22;20002;-84
2024/02/04 08:46:43;;;;;;;2.53;1.42;;;8.90;99.90;;;;;;6338705;22;20006;-83
2024/02/04 08:49:09;;;;;;;1.02;0.90;;;8.90;99.90;;;;;;6339397;22;20512;-83
2024/02/04 08:51:34;;;;;;;2.95;1.65;;;8.80;99.90;;;;;;6340824;22;20013;-82
2024/02/04 08:54:00;;;;;;;1.60;1.00;;;8.80;99.90;;;;;;6341154;22;20006;-83
2024/02/04 08:56:26;;;;;;;1.85;1.20;;;8.90;99.90;;;;;;6341324;22;20021;-82
2024/02/04 08:58:52;;;;;;;1.90;1.40;;;8.80;99.90;;;;;;6369105;22;19999;-82
2024/02/04 09:01:18;;;;;;;1.98;1.15;;;8.90;99.90;;;;;;6368994;22;20426;-83
2024/02/04 09:03:44;;;;;;;1.67;1.17;;;8.90;99.90;;;;;;6341113;22;20010;-83
2024/02/04 09:06:10;;;;;;;3.38;1.20;;;8.90;99.90;;;;;;6340840;22;20425;-83
2024/02/04 09:08:36;;;;;;;5.38;2.03;;;8.90;99.90;;;;;;6368893;22;19998;-83
2024/02/04 09:11:01;;;;;;;3.15;1.60;;;8.90;99.90;;;;;;6341021;22;20029;-83
2024/02/04 09:13:27;;;;;;;3.90;2.03;;;8.90;99.90;;;;;;6341401;22;19999;-82
2024/02/04 09:15:53;;;;;;;3.30;2.22;;;8.90;99.90;;;;;;6341050;22;20056;-86
2024/02/04 09:18:20;;;;;;;3.88;2.30;;;8.90;99.90;;;;;;6369027;22;19999;-82
2024/02/04 09:20:46;;;;;;;2.28;1.50;;;8.90;99.90;;;;;;6335647;22;20402;-82
2024/02/04 09:23:12;;;;;;;3.95;1.20;;;9.00;99.90;;;;;;6309403;22;19999;-81
2024/02/04 09:25:38;;;;;;;4.38;0.90;;;9.00;99.90;;;;;;6309004;22;19998;-81
2024/02/04 09:28:04;;;;;;;1.05;0.80;;;9.00;99.90;;;;;;6309689;22;20369;-82
2024/02/04 09:30:30;;;;;;;0.50;0.43;;;9.00;99.90;;;;;;6335346;22;20513;-82
2024/02/04 09:32:56;;;;;;;0.88;0.70;;;9.00;99.90;;;;;;6309686;22;20005;-82
2024/02/04 09:35:23;;;;;;;2.00;1.00;;;9.10;99.90;;;;;;6335817;22;20007;-83
2024/02/04 09:37:48;;;;;;;0.80;0.73;;;9.10;99.90;;;;;;6337421;22;20048;-81
2024/02/04 09:40:14;;;;;;;1.35;1.05;;;9.10;99.90;;;;;;6337821;22;20003;-81
2024/02/04 09:42:40;;;;;;;1.92;0.98;;;9.10;99.90;;;;;;6335979;22;20136;-82
2024/02/04 09:45:06;;;;;;;2.67;1.00;;;9.10;99.90;;;;;;6309773;22;20007;-82
2024/02/04 09:47:35;;;;;;;2.15;1.20;;;9.20;99.90;;;;;;6309826;22;20014;-83
2024/02/04 09:50:00;;;;;;;1.88;1.10;;;9.20;99.90;;;;;;6309714;22;20499;-82
2024/02/04 09:52:31;;;;;;;3.05;1.40;;;9.20;99.90;;;;;;6336029;22;20003;-82
2024/02/04 09:55:06;;;;;;;3.30;1.38;;;9.20;99.90;;;;;;6283894;22;20007;-82
2024/02/04 09:57:33;;;;;;;2.58;1.50;;;9.20;99.90;;;;;;6308239;22;20080;-83
2024/02/04 09:59:59;;;;;;;2.70;1.27;;;9.20;99.90;;;;;;6308893;22;20006;-83
2024/02/04 10:02:25;;;;;;;4.65;1.75;;;9.20;99.90;;;;;;6308795;22;20017;-82
2024/02/04 10:04:51;;;;;;;2.33;1.45;;;9.20;99.90;;;;;;6335413;22;20501;-84
2024/02/04 10:07:18;;;;;;;3.80;1.55;;;9.20;99.90;;;;;;6338183;22;20128;-84
2024/02/04 10:09:44;;;;;;;3.20;1.50;;;9.20;99.90;;;;;;6338640;22;20078;-82
2024/02/04 10:12:10;;;;;;;3.13;1.23;;;9.20;99.90;;;;;;6338071;22;20015;-83
2024/02/04 10:14:36;;;;;;;4.80;1.00;;;9.20;99.90;;;;;;6337117;22;20003;-83
2024/02/04 10:17:01;;;;;;;1.95;1.05;;;9.30;99.90;;;;;;6337694;22;20009;-84
2024/02/04 10:19:27;;;;;;;4.38;1.45;;;9.30;99.90;;;;;;6311890;22;20013;-84
2024/02/04 10:22:03;;;;;;;6.28;1.70;;;9.30;99.90;;;;;;6341884;22;20006;-84
2024/02/04 10:24:30;;;;;;;3.13;1.17;;;9.30;99.90;;;;;;6341954;22;20037;-84
2024/02/04 10:26:56;;;;;;;3.30;1.35;;;9.20;99.90;;;;;;6316383;22;20009;-84
2024/02/04 10:29:25;;;;;;;3.45;1.20;;;9.20;99.90;;;;;;6341740;22;20010;-84
2024/02/04 10:31:56;;;;;;;4.65;2.20;;;9.20;99.90;;;;;;6341539;22;20463;-84
2024/02/04 10:34:22;;;;;;;4.13;2.15;;;9.20;99.90;;;;;;6341354;22;20007;-84
2024/02/04 10:36:49;;;;;;;2.55;1.30;;;9.20;99.90;;;;;;6341630;22;20025;-84
2024/02/04 10:39:15;;;;;;;6.63;1.27;;;9.20;99.90;;;;;;6340980;22;20007;-84
2024/02/04 10:41:51;;;;;;;5.38;1.40;;;9.20;99.90;;;;;;6340558;22;20002;-83
2024/02/04 10:44:20;;;;;;;4.60;1.77;;;9.20;99.90;;;;;;6368624;22;20002;-84
2024/02/04 10:46:50;;;;;;;8.30;2.05;;;9.20;99.90;;;;;;6341406;22;20010;-84
2024/02/04 10:49:18;;;;;;;1.90;1.30;;;9.10;99.90;;;;;;6341103;22;20009;-84
2024/02/04 10:51:45;;;;;;;2.83;1.05;;;9.10;99.90;;;;;;6340511;22;20010;-84
2024/02/04 10:54:18;;;;;;;5.60;1.50;;;9.10;99.90;;;;;;6339555;22;20368;-86
2024/02/04 10:56:46;;;;;;;4.97;1.92;;;9.10;99.90;;;;;;6339117;22;20021;-84
2024/02/04 10:59:17;;;;;;;2.10;1.13;;;9.10;99.90;;;;;;6367541;22;20371;-85
2024/02/04 11:01:45;;;;;;;4.45;1.27;;;9.20;99.90;;;;;;6339736;22;20516;-84
2024/02/04 11:04:11;;;;;;;3.92;1.50;;;9.20;99.90;;;;;;6338197;22;20003;-82
2024/02/04 11:06:40;;;;;;;4.85;1.30;;;9.10;99.90;;;;;;6337220;22;20007;-83
2024/02/04 11:09:09;;;;;;;7.03;1.98;;;9.20;99.90;;;;;;6337974;22;20010;-83
2024/02/04 11:11:36;;;;;;;4.25;1.65;;;9.20;99.90;;;;;;6366057;22;20018;-82
2024/02/04 11:14:07;;;;;;;5.18;1.30;;;9.20;99.90;;;;;;6338181;22;20325;-82
2024/02/04 11:16:39;;;;;;;4.80;1.58;;;9.30;99.90;;;;;;6337756;22;20433;-83
2024/02/04 11:19:14;;;;;;;4.13;1.33;;;9.30;99.90;;;;;;6338093;22;20097;-83
2024/02/04 11:22:20;;;;;;;6.65;1.50;;;9.40;99.90;;;;;;6366208;22;20449;-82
2024/02/04 11:25:02;;;;;;;7.55;1.70;;;9.40;99.90;;;;;;6366848;22;20362;-83
2024/02/04 11:27:29;;;;;;;4.00;1.60;;;9.40;99.90;;;;;;6366571;22;20489;-83
2024/02/04 11:29:55;;;;;;;5.00;1.50;;;9.50;99.90;;;;;;6368863;22;20006;-84
2024/02/04 11:32:23;;;;;;;5.90;1.42;;;9.50;99.90;;;;;;6368060;22;20030;-83
2024/02/04 11:34:49;;;;;;;5.85;1.90;;;9.50;99.90;;;;;;6368384;22;20085;-86
2024/02/04 11:37:19;;;;;;;6.10;1.33;;;9.60;99.90;;;;;;6340489;22;20383;-82
2024/02/04 11:39:58;;;;;;;11.40;1.70;;;9.60;99.90;;;;;;6341306;22;20426;-82
2024/02/04 11:42:24;;;;;;;5.32;1.38;;;9.60;99.90;;;;;;6315643;22;20471;-81
2024/02/04 11:44:50;;;;;;;3.47;1.33;;;9.60;99.90;;;;;;6370388;22;20006;-81
2024/02/04 11:47:26;;;;;;;4.68;1.50;;;9.70;99.90;;;;;;6341923;22;20017;-82
2024/02/04 11:49:57;;;;;;;6.40;1.60;;;9.70;99.90;;;;;;6341899;22;20029;-83
2024/02/04 11:52:23;;;;;;;8.52;2.08;;;9.70;99.90;;;;;;6342378;22;20010;-81
2024/02/04 11:54:49;;;;;;;7.78;2.88;;;9.80;99.90;;;;;;6342190;22;20005;-81
2024/02/04 11:57:15;;;;;;;5.68;1.60;;;9.80;99.90;;;;;;6341468;22;20010;-81
2024/02/04 11:59:44;;;;;;;6.32;3.15;;;9.90;99.90;;;;;;6369692;22;20033;-82
2024/02/04 12:02:11;;;;;;;5.20;2.90;;;9.90;99.90;;;;;;6369385;22;19998;-82
2024/02/04 12:04:39;;;;;;;5.65;2.47;;;10.00;99.90;;;;;;6341327;22;20013;-82
2024/02/04 12:07:05;;;;;;;5.47;1.83;;;10.00;99.90;;;;;;6369105;22;20322;-82
2024/02/04 12:09:31;;;;;;;4.25;1.80;;;10.10;99.90;;;;;;6369182;22;21965;-83
2024/02/04 12:11:57;;;;;;;4.57;0.90;;;10.10;99.90;;;;;;6369496;22;20429;-83
2024/02/04 12:14:23;;;;;;;3.03;1.15;;;10.10;99.90;;;;;;6369095;22;20425;-82
2024/02/04 12:16:50;;;;;;;1.90;1.27;;;10.20;99.90;;;;;;6369111;22;20075;-84
2024/02/04 12:19:16;;;;;;;2.97;1.58;;;10.20;99.90;;;;;;6341545;22;20002;-82
2024/02/04 12:21:42;;;;;;;4.90;1.77;;;10.20;99.90;;;;;;6368895;22;20006;-81
2024/02/04 12:24:08;;;;;;;5.30;2.53;;;10.30;99.90;;;;;;6369422;22;20095;-82
2024/02/04 12:26:35;;;;;;;4.13;1.60;;;10.30;99.90;;;;;;6341145;22;20009;-83
2024/02/04 12:29:01;;;;;;;7.80;1.80;;;10.40;99.90;;;;;;6368934;22;20493;-82
2024/02/04 12:31:31;;;;;;;4.03;1.60;;;10.40;99.90;;;;;;6341195;22;20050;-81
2024/02/04 12:33:58;;;;;;;1.70;0.70;;;10.50;99.90;;;;;;6341546;22;20063;-82
2024/02/04 12:36:25;;;;;;;8.10;2.90;;;10.50;99.90;;;;;;6369508;22;20002;-83
2024/02/04 12:38:56;;;;;;;16.40;7.15;;;10.50;99.90;;;;;;6340660;22;20052;-82
2024/02/04 12:41:25;;;;;;;25.30;10.48;;;10.50;99.90;;;;;;6341231;22;20010;-84
2024/02/04 12:43:55;;;;;;;20.02;8.30;;;10.50;99.90;;;;;;6340411;22;20010;-84
2024/02/04 12:46:22;;;;;;;18.08;7.38;;;10.50;99.90;;;;;;6369159;22;19999;-84
2024/02/04 12:48:55;;;;;;;20.08;9.73;;;10.50;99.90;;;;;;6341429;22;20079;-84
2024/02/04 12:51:29;;;;;;;6.47;2.58;;;10.50;99.90;;;;;;6338859;22;20006;-83
2024/02/04 12:54:13;;;;;;;4.78;1.75;;;10.50;99.90;;;;;;6340845;22;20433;-84